createdAt,value
2023-04-25T00:02:09.297Z,9.60
2023-04-25T00:04:40.733Z,8.00
2023-04-25T00:07:07.186Z,12.20
2023-04-25T00:09:33.733Z,16.60
2023-04-25T00:12:01.705Z,8.80
2023-04-25T00:14:30.828Z,8.50
2023-04-25T00:16:56.854Z,9.50
2023-04-25T00:19:22.944Z,9.80
2023-04-25T00:21:49.475Z,9.10
2023-04-25T00:24:15.713Z,9.50
2023-04-25T00:26:41.879Z,12.30
2023-04-25T00:29:08.025Z,11.60
2023-04-25T00:31:34.242Z,12.80
2023-04-25T00:34:00.540Z,20.00
2023-04-25T00:36:26.675Z,14.10
2023-04-25T00:38:54.394Z,10.00
2023-04-25T00:41:20.719Z,10.20
2023-04-25T00:43:49.055Z,10.80
2023-04-25T00:46:15.502Z,16.90
2023-04-25T00:48:41.894Z,15.50
2023-04-25T00:51:07.935Z,12.10
2023-04-25T00:53:36.385Z,10.30
2023-04-25T00:56:02.852Z,12.10
2023-04-25T00:58:28.957Z,12.00
2023-04-25T01:00:56.557Z,11.40
2023-04-25T01:03:25.487Z,11.20
2023-04-25T01:05:52.263Z,13.80
2023-04-25T01:08:18.394Z,8.10
2023-04-25T01:10:44.730Z,11.50
2023-04-25T01:13:11.205Z,11.80
2023-04-25T01:15:37.304Z,11.60
2023-04-25T01:18:05.164Z,11.90
2023-04-25T01:20:32.945Z,11.30
2023-04-25T01:23:03.284Z,8.30
2023-04-25T01:25:30.859Z,11.30
2023-04-25T01:27:58.336Z,12.70
2023-04-25T01:30:28.654Z,14.20
2023-04-25T01:32:56.740Z,11.00
2023-04-25T01:35:24.285Z,15.80
2023-04-25T01:37:51.606Z,11.10
2023-04-25T01:40:19.127Z,10.90
2023-04-25T01:42:45.645Z,14.60
2023-04-25T01:45:12.336Z,13.20
2023-04-25T01:47:44.137Z,12.00
2023-04-25T01:50:13.362Z,11.60
2023-04-25T01:52:39.475Z,15.50
2023-04-25T01:55:06.353Z,16.10
2023-04-25T01:57:32.624Z,19.70
2023-04-25T02:00:03.621Z,13.50
2023-04-25T02:02:29.964Z,14.90
2023-04-25T02:04:56.585Z,17.00
2023-04-25T02:07:22.774Z,14.30
2023-04-25T02:09:53.642Z,15.50
2023-04-25T02:12:22.003Z,10.30
2023-04-25T02:14:48.134Z,15.20
2023-04-25T02:17:14.235Z,17.30
2023-04-25T02:19:40.438Z,9.60
2023-04-25T02:22:06.635Z,11.60
2023-04-25T02:24:34.123Z,13.20
2023-04-25T02:27:00.380Z,11.50
2023-04-25T02:29:26.558Z,15.10
2023-04-25T02:31:55.222Z,13.50
2023-04-25T02:34:21.588Z,13.00
2023-04-25T02:36:51.452Z,12.60
2023-04-25T02:39:17.733Z,12.10
2023-04-25T02:41:43.954Z,17.20
2023-04-25T02:44:10.274Z,14.80
2023-04-25T02:46:39.424Z,15.80
2023-04-25T02:49:06.617Z,14.90
2023-04-25T02:51:32.966Z,13.80
2023-04-25T02:54:01.503Z,15.80
2023-04-25T02:56:27.985Z,11.00
2023-04-25T02:58:54.351Z,12.20
2023-04-25T03:01:20.890Z,12.00
2023-04-25T03:03:47.199Z,17.20
2023-04-25T03:06:13.567Z,18.60
2023-04-25T03:08:39.692Z,16.10
2023-04-25T03:11:05.809Z,12.60
2023-04-25T03:13:31.978Z,12.50
2023-04-25T03:15:58.325Z,11.80
2023-04-25T03:18:24.682Z,9.40
2023-04-25T03:20:50.669Z,10.90
2023-04-25T03:23:17.006Z,18.20
2023-04-25T03:25:43.346Z,12.80
2023-04-25T03:28:09.600Z,13.00
2023-04-25T03:30:35.609Z,15.10
2023-04-25T03:33:01.740Z,13.40
2023-04-25T03:35:27.968Z,11.70
2023-04-25T03:37:54.193Z,9.60
2023-04-25T03:40:20.340Z,9.40
2023-04-25T03:42:46.580Z,13.90
2023-04-25T03:45:12.847Z,12.50
2023-04-25T03:47:38.866Z,16.90
2023-04-25T03:50:05.591Z,13.00
2023-04-25T03:52:31.610Z,11.10
2023-04-25T03:54:57.689Z,8.90
2023-04-25T03:57:23.731Z,15.00
2023-04-25T03:59:49.749Z,9.40
2023-04-25T04:02:16.113Z,13.70
2023-04-25T04:04:44.912Z,12.70
2023-04-25T04:07:11.320Z,13.80
2023-04-25T04:09:37.402Z,13.70
2023-04-25T04:12:03.910Z,14.10
2023-04-25T04:14:29.964Z,9.30
2023-04-25T04:16:56.017Z,16.50
2023-04-25T04:19:22.301Z,12.80
2023-04-25T04:21:48.502Z,10.90
2023-04-25T04:24:15.418Z,11.80
2023-04-25T04:26:41.620Z,10.80
2023-04-25T04:29:11.057Z,13.70
2023-04-25T04:31:37.218Z,9.50
2023-04-25T04:34:04.035Z,15.00
2023-04-25T04:36:32.569Z,14.70
2023-04-25T04:39:00.967Z,14.10
2023-04-25T04:41:27.099Z,13.50
2023-04-25T04:43:56.414Z,12.90
2023-04-25T04:46:22.835Z,15.30
2023-04-25T04:48:49.215Z,10.50
2023-04-25T04:51:15.744Z,17.50
2023-04-25T04:53:41.951Z,11.90
2023-04-25T04:56:08.078Z,9.60
2023-04-25T04:58:34.847Z,16.10
2023-04-25T05:01:01.269Z,16.70
2023-04-25T05:03:27.846Z,16.90
2023-04-25T05:05:57.133Z,17.20
2023-04-25T05:08:23.240Z,13.50
2023-04-25T05:10:49.301Z,12.30
2023-04-25T05:13:16.046Z,14.50
2023-04-25T05:15:42.295Z,16.60
2023-04-25T05:18:08.422Z,13.00
2023-04-25T05:20:37.795Z,14.80
2023-04-25T05:23:04.650Z,10.00
2023-04-25T05:25:33.727Z,13.50
2023-04-25T05:28:02.209Z,14.10
2023-04-25T05:30:28.286Z,18.20
2023-04-25T05:32:54.426Z,16.10
2023-04-25T05:35:20.717Z,12.40
2023-04-25T05:37:46.931Z,11.90
2023-04-25T05:40:13.287Z,12.70
2023-04-25T05:42:39.404Z,11.20
2023-04-25T05:45:06.479Z,14.20
2023-04-25T05:47:32.531Z,15.50
2023-04-25T05:49:58.762Z,13.10
2023-04-25T05:52:25.456Z,15.40
2023-04-25T05:54:54.435Z,9.50
2023-04-25T05:57:21.527Z,14.70
2023-04-25T05:59:47.736Z,14.20
2023-04-25T06:02:13.948Z,13.90
2023-04-25T06:04:40.539Z,13.90
2023-04-25T06:07:06.690Z,14.50
2023-04-25T06:09:32.779Z,11.90
2023-04-25T06:11:58.832Z,22.30
2023-04-25T06:14:29.686Z,11.00
2023-04-25T06:16:56.080Z,14.80
2023-04-25T06:19:22.208Z,10.20
2023-04-25T06:21:48.308Z,13.60
2023-04-25T06:24:14.571Z,8.50
2023-04-25T06:26:40.641Z,7.40
2023-04-25T06:29:06.787Z,11.40
2023-04-25T06:31:35.927Z,9.70
2023-04-25T06:34:04.998Z,11.00
2023-04-25T06:36:31.009Z,7.10
2023-04-25T06:38:57.715Z,6.30
2023-04-25T06:41:23.710Z,8.50
2023-04-25T06:43:49.792Z,9.70
2023-04-25T06:46:16.157Z,7.70
2023-04-25T06:48:42.813Z,10.80
2023-04-25T06:51:08.892Z,12.70
2023-04-25T06:53:34.994Z,10.10
2023-04-25T06:56:01.244Z,11.00
2023-04-25T06:58:27.285Z,7.60
2023-04-25T07:00:53.617Z,10.40
2023-04-25T07:03:20.260Z,7.70
2023-04-25T07:05:46.586Z,13.00
2023-04-25T07:08:15.694Z,11.20
2023-04-25T07:10:44.227Z,12.30
2023-04-25T07:13:10.253Z,8.80
2023-04-25T07:15:36.419Z,9.00
2023-04-25T07:18:02.517Z,10.40
2023-04-25T07:20:28.903Z,11.10
2023-04-25T07:22:54.958Z,13.00
2023-04-25T07:25:23.777Z,7.70
2023-04-25T07:27:49.995Z,9.00
2023-04-25T07:30:16.187Z,12.60
2023-04-25T07:32:46.009Z,8.90
2023-04-25T07:35:12.369Z,11.00
2023-04-25T07:37:40.930Z,9.90
2023-04-25T07:40:09.472Z,9.80
2023-04-25T07:42:35.892Z,9.70
2023-04-25T07:45:04.542Z,11.90
2023-04-25T07:47:31.189Z,10.10
2023-04-25T07:49:58.336Z,7.60
2023-04-25T07:52:24.927Z,7.30
2023-04-25T07:54:51.597Z,10.40
2023-04-25T07:57:19.218Z,9.70
2023-04-25T07:59:45.717Z,9.60
2023-04-25T08:02:12.113Z,10.30
2023-04-25T08:04:38.444Z,10.50
2023-04-25T08:07:04.841Z,10.20
2023-04-25T08:09:35.048Z,9.50
2023-04-25T08:12:02.525Z,7.90
2023-04-25T08:14:31.762Z,9.20
2023-04-25T08:17:00.725Z,7.60
2023-04-25T08:19:26.840Z,7.60
2023-04-25T08:21:52.955Z,8.20
2023-04-25T08:24:19.107Z,9.60
2023-04-25T08:26:45.201Z,7.20
2023-04-25T08:29:11.482Z,9.70
2023-04-25T08:31:37.861Z,8.40
2023-04-25T08:34:04.145Z,4.80
2023-04-25T08:36:39.429Z,5.30
2023-04-25T08:39:07.465Z,5.30
2023-04-25T08:41:36.466Z,4.70
2023-04-25T08:44:05.828Z,8.40
2023-04-25T08:46:32.806Z,6.00
2023-04-25T08:49:02.555Z,3.30
2023-04-25T08:51:32.296Z,6.50
2023-04-25T08:54:29.868Z,8.00
2023-04-25T08:57:02.445Z,5.70
2023-04-25T08:59:28.996Z,6.10
2023-04-25T09:01:55.639Z,9.60
2023-04-25T09:04:21.930Z,7.50
2023-04-25T09:06:48.617Z,6.80
2023-04-25T09:09:15.051Z,8.50
2023-04-25T09:11:41.901Z,6.20
2023-04-25T09:14:28.501Z,7.30
2023-04-25T09:17:00.596Z,9.10
2023-04-25T09:19:38.948Z,8.10
2023-04-25T09:22:07.684Z,6.30
2023-04-25T09:24:44.799Z,5.30
2023-04-25T09:27:12.831Z,7.90
2023-04-25T09:29:42.468Z,5.00
2023-04-25T09:32:21.917Z,6.00
2023-04-25T09:34:50.930Z,6.70
2023-04-25T09:37:28.005Z,7.50
2023-04-25T09:40:03.590Z,6.20
2023-04-25T09:42:32.279Z,5.00
2023-04-25T09:44:59.445Z,4.60
2023-04-25T09:47:27.121Z,4.10
2023-04-25T09:49:54.161Z,8.20
2023-04-25T09:52:24.576Z,6.20
2023-04-25T09:54:52.331Z,4.60
2023-04-25T09:57:22.475Z,5.10
2023-04-25T09:59:53.075Z,5.10
2023-04-25T10:02:21.955Z,5.30
2023-04-25T10:04:54.909Z,7.20
2023-04-25T10:07:26.120Z,4.10
2023-04-25T10:09:56.495Z,6.00
2023-04-25T10:12:25.158Z,6.50
2023-04-25T10:14:51.334Z,6.20
2023-04-25T10:17:18.174Z,5.30
2023-04-25T10:19:44.229Z,5.00
2023-04-25T10:22:40.646Z,5.70
2023-04-25T10:25:08.696Z,5.00
2023-04-25T10:27:35.325Z,6.60
2023-04-25T10:30:15.549Z,5.70
2023-04-25T10:32:45.991Z,5.10
2023-04-25T10:35:17.775Z,5.50
2023-04-25T10:38:11.202Z,4.80
2023-04-25T10:40:39.685Z,4.70
2023-04-25T10:43:41.296Z,3.70
2023-04-25T10:46:18.484Z,4.90
2023-04-25T10:48:55.961Z,8.10
2023-04-25T10:51:27.168Z,6.40
2023-04-25T10:53:56.058Z,6.40
2023-04-25T10:56:22.937Z,5.80
2023-04-25T10:58:51.195Z,6.50
2023-04-25T11:01:27.363Z,8.30
2023-04-25T11:03:58.675Z,5.80
2023-04-25T11:06:43.903Z,4.80
2023-04-25T11:09:15.230Z,6.20
2023-04-25T11:11:41.632Z,7.00
2023-04-25T11:14:07.732Z,4.50
2023-04-25T11:16:33.974Z,5.20
2023-04-25T11:19:00.018Z,5.90
2023-04-25T11:21:29.435Z,4.50
2023-04-25T11:23:56.956Z,4.50
2023-04-25T11:26:25.668Z,6.30
2023-04-25T11:28:51.663Z,5.50
2023-04-25T11:31:22.078Z,5.20
2023-04-25T11:33:48.472Z,6.80
2023-04-25T11:36:14.737Z,4.40
2023-04-25T11:38:41.269Z,6.60
2023-04-25T11:41:08.010Z,3.10
2023-04-25T11:43:34.500Z,2.90
2023-04-25T11:46:01.636Z,5.70
2023-04-25T11:48:27.721Z,4.60
2023-04-25T11:50:55.596Z,7.10
2023-04-25T11:53:21.740Z,3.60
2023-04-25T11:55:48.151Z,5.20
2023-04-25T11:58:14.314Z,5.00
2023-04-25T12:00:42.678Z,3.60
2023-04-25T12:03:18.661Z,4.30
2023-04-25T12:05:46.146Z,3.60
2023-04-25T12:08:20.421Z,3.10
2023-04-25T12:10:47.355Z,3.30
2023-04-25T12:13:24.736Z,5.90
2023-04-25T12:15:51.215Z,3.60
2023-04-25T12:18:23.150Z,4.20
2023-04-25T12:20:49.687Z,4.80
2023-04-25T12:23:15.858Z,5.60
2023-04-25T12:25:44.101Z,4.20
2023-04-25T12:28:10.811Z,5.60
2023-04-25T12:31:03.594Z,6.00
2023-04-25T12:33:32.034Z,3.60
2023-04-25T12:36:04.553Z,5.00
2023-04-25T12:41:00.738Z,8.00
2023-04-25T12:43:27.255Z,4.90
2023-04-25T12:45:55.474Z,4.50
2023-04-25T12:48:22.266Z,5.30
2023-04-25T12:50:52.161Z,4.60
2023-04-25T12:53:19.962Z,7.40
2023-04-25T12:55:47.195Z,3.60
2023-04-25T12:58:18.000Z,5.20
2023-04-25T13:00:45.672Z,3.80
2023-04-25T13:03:13.439Z,7.30
2023-04-25T13:05:40.311Z,5.20
2023-04-25T13:08:06.472Z,4.90
2023-04-25T13:10:37.306Z,5.10
2023-04-25T13:13:03.525Z,6.90
2023-04-25T13:15:29.883Z,6.10
2023-04-25T13:17:56.457Z,5.80
2023-04-25T13:20:22.879Z,5.60
2023-04-25T13:22:48.977Z,6.60
2023-04-25T13:25:17.561Z,7.60
2023-04-25T13:27:46.886Z,4.20
2023-04-25T13:30:13.333Z,5.30
2023-04-25T13:32:40.479Z,6.50
2023-04-25T13:35:10.657Z,3.90
2023-04-25T13:37:38.288Z,6.50
2023-04-25T13:40:11.224Z,4.10
2023-04-25T13:42:38.192Z,4.20
2023-04-25T13:45:08.015Z,4.40
2023-04-25T13:47:34.921Z,5.10
2023-04-25T13:50:03.349Z,5.30
2023-04-25T13:52:29.733Z,3.80
2023-04-25T13:54:56.212Z,4.20
2023-04-25T13:57:22.552Z,5.80
2023-04-25T13:59:48.612Z,7.70
2023-04-25T14:02:15.082Z,3.70
2023-04-25T14:04:41.913Z,4.70
2023-04-25T14:07:08.722Z,7.30
2023-04-25T14:09:34.813Z,7.60
2023-04-25T14:12:02.517Z,2.60
2023-04-25T14:14:28.640Z,5.00
2023-04-25T14:16:54.928Z,3.60
2023-04-25T14:19:22.341Z,3.50
2023-04-25T14:21:50.801Z,3.50
2023-04-25T14:24:17.162Z,4.10
2023-04-25T14:26:44.112Z,3.80
2023-04-25T14:29:12.137Z,4.70
2023-04-25T14:31:41.608Z,5.10
2023-04-25T14:34:08.134Z,4.90
2023-04-25T14:36:34.737Z,4.90
2023-04-25T14:39:01.418Z,7.70
2023-04-25T14:41:27.663Z,3.00
2023-04-25T14:43:53.947Z,6.30
2023-04-25T14:46:21.388Z,5.10
2023-04-25T14:48:47.709Z,3.60
2023-04-25T14:51:14.046Z,4.50
2023-04-25T14:53:43.545Z,3.90
2023-04-25T14:56:09.897Z,5.00
2023-04-25T14:58:36.105Z,5.30
2023-04-25T15:01:05.319Z,4.10
2023-04-25T15:03:32.480Z,4.30
2023-04-25T15:05:58.956Z,4.20
2023-04-25T15:08:24.943Z,6.40
2023-04-25T15:10:51.402Z,6.00
2023-04-25T15:13:19.077Z,3.50
2023-04-25T15:15:51.406Z,4.40
2023-04-25T15:18:24.509Z,2.90
2023-04-25T15:20:53.969Z,3.90
2023-04-25T15:23:24.510Z,4.00
2023-04-25T15:25:52.789Z,2.60
2023-04-25T15:28:21.624Z,3.60
2023-04-25T15:30:47.986Z,4.40
2023-04-25T15:33:15.126Z,4.90
2023-04-25T15:35:44.375Z,6.40
2023-04-25T15:38:13.289Z,6.00
2023-04-25T15:40:39.359Z,6.10
2023-04-25T15:43:06.688Z,5.50
2023-04-25T15:45:33.002Z,5.40
2023-04-25T15:47:59.308Z,5.80
2023-04-25T15:50:25.744Z,6.00
2023-04-25T15:52:52.290Z,4.80
2023-04-25T15:55:22.362Z,3.70
2023-04-25T15:57:51.685Z,5.30
2023-04-25T16:00:18.920Z,5.90
2023-04-25T16:02:47.675Z,6.40
2023-04-25T16:05:14.871Z,4.60
2023-04-25T16:07:42.383Z,4.60
2023-04-25T16:10:12.697Z,8.00
2023-04-25T16:12:39.950Z,2.60
2023-04-25T16:15:07.282Z,5.40
2023-04-25T16:17:33.564Z,4.60
2023-04-25T16:20:03.712Z,4.60
2023-04-25T16:22:32.087Z,5.60
2023-04-25T16:24:58.093Z,4.80
2023-04-25T16:27:24.279Z,5.00
2023-04-25T16:29:53.380Z,2.90
2023-04-25T16:32:19.439Z,4.50
2023-04-25T16:34:45.568Z,4.60
2023-04-25T16:37:11.764Z,3.60
2023-04-25T16:39:37.897Z,1.60
2023-04-25T16:42:04.970Z,3.90
2023-04-25T16:44:31.493Z,3.20
2023-04-25T16:46:57.611Z,5.90
2023-04-25T16:49:23.711Z,4.50
2023-04-25T16:51:50.430Z,5.90
2023-04-25T16:54:16.579Z,6.50
2023-04-25T16:56:42.876Z,4.60
2023-04-25T16:59:11.714Z,5.50
2023-04-25T17:01:38.113Z,4.40
2023-04-25T17:04:04.436Z,5.00
2023-04-25T17:06:30.645Z,6.00
2023-04-25T17:08:56.789Z,5.20
2023-04-25T17:11:22.944Z,5.70
2023-04-25T17:13:49.054Z,4.90
2023-04-25T17:16:22.472Z,2.70
2023-04-25T17:18:52.095Z,5.30
2023-04-25T17:21:18.403Z,6.40
2023-04-25T17:23:47.325Z,5.60
2023-04-25T17:26:14.042Z,8.20
2023-04-25T17:28:41.506Z,8.00
2023-04-25T17:31:09.077Z,6.10
2023-04-25T17:33:35.296Z,7.90
2023-04-25T17:36:03.375Z,6.30
2023-04-25T17:38:29.603Z,6.20
2023-04-25T17:40:55.782Z,7.10
2023-04-25T17:43:21.983Z,5.00
2023-04-25T17:45:48.126Z,3.60
2023-04-25T17:48:14.448Z,5.80
2023-04-25T17:50:41.187Z,6.10
2023-04-25T17:53:07.729Z,6.00
2023-04-25T17:55:33.889Z,4.40
2023-04-25T17:58:00.188Z,6.40
2023-04-25T18:00:31.096Z,4.30
2023-04-25T18:02:57.158Z,5.50
2023-04-25T18:05:23.230Z,3.50
2023-04-25T18:07:49.366Z,5.50
2023-04-25T18:10:20.801Z,4.10
2023-04-25T18:12:47.008Z,6.30
2023-04-25T18:15:13.195Z,4.40
2023-04-25T18:17:40.102Z,4.20
2023-04-25T18:20:14.466Z,4.70
2023-04-25T18:22:44.276Z,5.30
2023-04-25T18:25:10.933Z,6.00
2023-04-25T18:27:38.238Z,8.30
2023-04-25T18:30:09.970Z,6.30
2023-04-25T18:35:06.469Z,6.40
2023-04-25T18:37:32.789Z,5.60
2023-04-25T18:39:59.228Z,5.20
2023-04-25T18:42:25.394Z,6.70
2023-04-25T18:44:51.848Z,8.00
2023-04-25T18:47:18.186Z,3.60
2023-04-25T18:49:45.192Z,4.90
2023-04-25T18:52:12.288Z,3.80
2023-04-25T18:54:38.673Z,3.70
2023-04-25T18:57:05.457Z,5.10
2023-04-25T18:59:34.463Z,3.70
2023-04-25T19:02:01.356Z,6.30
2023-04-25T19:04:28.384Z,4.90
2023-04-25T19:06:54.653Z,7.40
2023-04-25T19:09:20.663Z,4.60
2023-04-25T19:11:46.854Z,11.20
2023-04-25T19:14:16.324Z,9.60
2023-04-25T19:16:42.775Z,7.40
2023-04-25T19:19:09.282Z,8.80
2023-04-25T19:21:35.733Z,7.00
2023-04-25T19:24:03.394Z,8.20
2023-04-25T19:26:29.741Z,7.30
2023-04-25T19:29:11.776Z,9.60
2023-04-25T19:31:39.002Z,6.70
2023-04-25T19:34:06.365Z,7.80
2023-04-25T19:36:33.318Z,9.60
2023-04-25T19:39:03.441Z,7.30
2023-04-25T19:41:30.874Z,9.40
2023-04-25T19:44:00.385Z,4.70
2023-04-25T19:46:28.997Z,6.00
2023-04-25T19:48:55.223Z,8.10
2023-04-25T19:51:21.369Z,7.40
2023-04-25T19:53:49.966Z,7.80
2023-04-25T19:56:17.419Z,7.70
2023-04-25T19:58:43.617Z,7.40
2023-04-25T20:01:09.677Z,7.20
2023-04-25T20:03:35.796Z,5.30
2023-04-25T20:06:02.048Z,7.90
2023-04-25T20:08:28.048Z,6.80
2023-04-25T20:10:54.136Z,7.90
2023-04-25T20:13:20.143Z,7.00
2023-04-25T20:15:48.606Z,6.50
2023-04-25T20:18:14.743Z,6.30
2023-04-25T20:20:41.158Z,3.90
2023-04-25T20:23:07.280Z,6.30
2023-04-25T20:25:33.438Z,6.10
2023-04-25T20:27:59.499Z,7.30
2023-04-25T20:30:25.633Z,7.10
2023-04-25T20:32:51.783Z,8.10
2023-04-25T20:35:17.931Z,8.00
2023-04-25T20:37:44.174Z,4.70
2023-04-25T20:40:11.233Z,8.40
2023-04-25T20:42:37.758Z,9.20
2023-04-25T20:45:10.122Z,8.60
2023-04-25T20:47:39.629Z,9.80
2023-04-25T20:50:13.217Z,7.50
2023-04-25T20:52:39.400Z,6.70
2023-04-25T20:55:06.942Z,9.40
2023-04-25T20:57:33.036Z,9.10
2023-04-25T20:59:59.214Z,8.80
2023-04-25T21:02:25.299Z,12.70
2023-04-25T21:04:51.780Z,9.60
2023-04-25T21:07:17.821Z,10.00
2023-04-25T21:09:44.958Z,10.30
2023-04-25T21:12:11.563Z,7.60
2023-04-25T21:14:40.039Z,9.20
2023-04-25T21:17:08.540Z,10.40
2023-04-25T21:19:34.663Z,7.20
2023-04-25T21:22:03.849Z,10.30
2023-04-25T21:24:32.534Z,13.20
2023-04-25T21:26:58.685Z,9.00
2023-04-25T21:29:24.800Z,8.60
2023-04-25T21:31:51.009Z,11.60
2023-04-25T21:34:17.531Z,7.60
2023-04-25T21:36:45.784Z,7.40
2023-04-25T21:39:11.917Z,10.80
2023-04-25T21:41:38.079Z,11.80
2023-04-25T21:44:04.512Z,9.90
2023-04-25T21:46:30.558Z,9.10
2023-04-25T21:48:56.956Z,10.40
2023-04-25T21:51:24.152Z,9.80
2023-04-25T21:53:52.728Z,8.70
2023-04-25T21:56:18.685Z,10.70
2023-04-25T21:58:45.364Z,13.90
2023-04-25T22:01:15.145Z,7.20
2023-04-25T22:03:41.895Z,11.80
2023-04-25T22:06:08.079Z,9.50
2023-04-25T22:08:34.213Z,11.80
2023-04-25T22:11:02.695Z,8.30
2023-04-25T22:13:28.945Z,7.90
2023-04-25T22:15:55.055Z,7.60
2023-04-25T22:18:23.995Z,10.70
2023-04-25T22:20:50.171Z,11.50
2023-04-25T22:23:18.485Z,7.40
2023-04-25T22:25:44.601Z,7.10
2023-04-25T22:28:12.066Z,13.30
2023-04-25T22:30:38.396Z,9.60
2023-04-25T22:33:04.564Z,12.30
2023-04-25T22:35:31.018Z,8.30
2023-04-25T22:37:57.173Z,8.00
2023-04-25T22:40:23.552Z,11.40
2023-04-25T22:42:49.719Z,12.10
2023-04-25T22:45:18.872Z,13.20
2023-04-25T22:47:44.990Z,10.90
2023-04-25T22:50:15.949Z,9.00
2023-04-25T22:52:42.788Z,10.10
2023-04-25T22:55:10.186Z,11.60
2023-04-25T22:57:37.753Z,10.00
2023-04-25T23:00:10.072Z,10.70
2023-04-25T23:02:39.194Z,12.00
2023-04-25T23:05:06.442Z,9.30
2023-04-25T23:07:33.395Z,11.30
2023-04-25T23:09:59.970Z,15.00
2023-04-25T23:12:26.073Z,10.00
2023-04-25T23:14:52.190Z,13.10
2023-04-25T23:17:18.235Z,13.50
2023-04-25T23:19:44.694Z,9.90
2023-04-25T23:22:10.785Z,13.90
2023-04-25T23:24:40.632Z,10.30
2023-04-25T23:27:07.034Z,13.00
2023-04-25T23:29:35.853Z,12.00
2023-04-25T23:32:02.162Z,10.80
2023-04-25T23:34:34.385Z,11.20
2023-04-25T23:37:00.828Z,11.30
2023-04-25T23:39:27.605Z,10.70
2023-04-25T23:41:53.663Z,13.50
2023-04-25T23:44:22.173Z,11.40
2023-04-25T23:46:50.866Z,9.10
2023-04-25T23:49:16.929Z,13.40
2023-04-25T23:51:43.097Z,11.30
2023-04-25T23:54:09.316Z,10.00
2023-04-25T23:56:35.473Z,9.80
2023-04-25T23:59:01.545Z,14.00
